富山空港の過去48時間の天気

富山空港 (Toyama)

現在時刻: 9/16 12:09 JST (9/16 03:09 UTC) 以下の時間は現地時間です。

過去48時間のMETAR気象情報
時間 風向 風速(m/s) 視程 気温(℃) 湿度(%) 気圧(hPa) 天気現象
16 12:00 3 7000m 24 89 1004 弱いしゅう雨
16 11:00 西北西 2 8000m 24 89 1005 弱いしゅう雨
16 10:00 北西 2 10km以上 27 70 1005 周辺でしゅう雨
16 09:00 不定 1 10km以上 25 78 1005
16 08:00 不定 1 10km以上 25 78 1005
16 07:00 不定 1 10km以上 22 88 1005
16 06:10 西南西 2 10km以上 21 88 1005
15 21:00 南西 2 10km以上 24 78 1007
15 20:00 不定 1 10km以上 25 78 1007
15 19:00 北北東 3 10km以上 27 70 1007
15 18:00 北北東 3 10km以上 28 66 1007
15 17:00 北北東 4 10km以上 28 58 1007
15 16:00 4 10km以上 30 49 1007
15 15:00 5 10km以上 30 46 1007
15 14:00 5 10km以上 30 46 1007
15 13:00 4 10km以上 31 46 1007
15 12:00 3 10km以上 31 49 1008
15 11:00 北西 2 10km以上 30 55 1009
15 10:00 北西 2 10km以上 30 55 1009
15 09:00 不定 1 10km以上 28 58 1010
15 08:00 南西 2 10km以上 26 70 1009
15 07:00 不定 1 10km以上 23 78 1010
15 06:10 不定 1 10km以上 21 83 1010
14 21:00 1 10km以上 24 78 1011
14 20:00 南西 2 10km以上 24 83 1011
14 19:00 南西 2 10km以上 25 78 1011
14 18:00 2 10km以上 26 70 1010
14 17:00 2 10km以上 27 66 1010
14 16:00 4 10km以上 28 66 1010
14 15:00 5 10km以上 28 55 1010
14 14:00 5 10km以上 28 55 1009
14 13:00 5 10km以上 30 49 1010
RJNT 160300Z 01006KT 7000 -SHRA FEW005 SCT010 BKN030 24/22 Q1004
RJNT 160200Z 30004KT 270V330 8000 -SHRA FEW005 SCT010 BKN020 24/22 Q1005
RJNT 160100Z 31003KT 240V360 9999 VCSH FEW020 SCT030 BKN040 27/21 Q1005
RJNT 160000Z VRB01KT 9999 FEW020 SCT030 BKN050 25/21 Q1005
RJNT 152300Z VRB02KT 9999 FEW030 25/21 Q1005
RJNT 152200Z VRB01KT 9999 FEW030 22/20 Q1005
RJNT 152110Z 24003KT 210V270 9999 FEW050 21/19 Q1005 RMK 1SC050 A2970
RJNT 151200Z 22004KT 9999 FEW060 24/20 Q1007
RJNT 151100Z VRB02KT 9999 FEW060 25/21 Q1007
RJNT 151000Z 02005KT 9999 FEW040 BKN060 27/21 Q1007
RJNT 150900Z 02006KT 9999 FEW040 BKN060 28/21 Q1007
RJNT 150800Z 02008KT 350V050 9999 FEW040 28/19 Q1007
RJNT 150700Z 36008KT 9999 FEW040 30/18 Q1007
RJNT 150600Z 36010KT 9999 FEW040 SCT070 30/17 Q1007
RJNT 150500Z 01009KT 9999 FEW040 30/17 Q1007
RJNT 150400Z 01008KT 9999 FEW040 31/18 Q1007
RJNT 150300Z 36006KT 310V040 9999 FEW040 31/19 Q1008
RJNT 150200Z 32003KT 270V010 9999 FEW040 30/20 Q1009
RJNT 150100Z 32003KT 270V360 9999 FEW040 30/20 Q1009
RJNT 150000Z VRB01KT 9999 FEW040 28/19 Q1010
RJNT 142300Z 22003KT 160V260 9999 FEW040 26/20 Q1009
RJNT 142200Z VRB02KT 9999 FEW040 23/19 Q1010
RJNT 142110Z VRB02KT CAVOK 21/18 Q1010 RMK A2984
RJNT 141200Z 17002KT 9999 SCT050 24/20 Q1011
RJNT 141100Z 22004KT 9999 FEW050 24/21 Q1011
RJNT 141000Z 22003KT 9999 FEW050 BKN060 25/21 Q1011
RJNT 140900Z 35003KT 9999 FEW040 BKN050 26/20 Q1010
RJNT 140800Z 35004KT 9999 FEW050 BKN060 27/20 Q1010
RJNT 140700Z 35007KT 9999 FEW030 BKN070 28/21 Q1010
RJNT 140600Z 36010KT 9999 FEW030 28/18 Q1010
RJNT 140500Z 01010KT 9999 FEW030 28/18 Q1009
RJNT 140400Z 36010KT 9999 FEW030 30/18 Q1010